ADDS METAR Data INFO
IDs: Format: Raw Decoded Include TAF

Data at: 0035 UTC 23 Oct 2017

KHLN 222353Z 27019G31KT 10SM -RA FEW046 SCT060 BKN080 09/02 A3008 RMK AO2 PK WND 27038/2340 RAE03B40 SLP199 P0000 60000 T00940017 10161 20083 51044
KHLN 222253Z 26011KT 10SM -RA FEW046 BKN080 OVC090 10/03 A3005 RMK AO2 PK WND 27035/2157 RAB53 SLP185 P0000 T01000028
KHLN 222153Z 28027G34KT 10SM FEW044 SCT055 BKN095 10/03 A3001 RMK AO2 PK WND 29045/2136 RAB15E48 SLP182 P0000 T01000028
KHLN 222053Z AUTO 26024G35KT 10SM CLR 13/01 A2994 RMK AO2 PK WND 26049/2042 SLP154 60000 T01330006 53024
KHLN 221953Z 27026G38KT 10SM FEW065 FEW075 SCT090 16/01 A2990 RMK AO2 PK WND 26044/1943 RAE1854 SLP137 P0000 T01560006
KHLN 221853Z 24008KT 10SM -RA FEW046 BKN060 OVC085 16/04 A2989 RMK AO2 PK WND 24026/1806 RAB41 SLP128 P0000 T01560044
KHLN 221753Z 26013G27KT 10SM SCT050 BKN070 16/03 A2986 RMK AO2 PK WND 25027/1745 RAB1658E39 SLP117 P0000 60000 T01560028 10156 20111 50009
KHLN 221653Z 25015G23KT 10SM BKN048 OVC065 14/03 A2987 RMK AO2 PK WND 23027/1633 RAB1559E11 SLP121 P0000 T01390028
KHLN 221553Z 24018G30KT 10SM SCT046 SCT055 BKN110 14/02 A2986 RMK AO2 PK WND 26030/1551 RAE03 SLP120 P0000 T01390022
KHLN 221453Z 25011G24KT 10SM -RA SCT048 BKN070 13/02 A2983 RMK AO2 RAB50 SLP108 P0000 60000 T01330022 53004
KHLN 221353Z 22005G15KT 10SM BKN040 13/02 A2981 RMK AO2 SLP102 T01330017
KHLN 221253Z 28012G18KT 10SM CLR 12/02 A2983 RMK AO2 SLP112 T01220022
KHLN 221153Z 17009KT 10SM CLR 11/01 A2982 RMK AO2 SLP107 T01110011 10117 20033 55005
KHLN 221053Z 21010G17KT 10SM CLR 12/01 A2981 RMK AO2 SLP102 T01170006
KHLN 220953Z 00000KT 10SM CLR 06/M01 A2982 RMK AO2 SLP116 T00561011
KHLN 220853Z 00000KT 10SM CLR 04/M02 A2983 RMK AO2 SLP121 T00391017 56021
KHLN 220753Z 34004KT 10SM CLR 04/M01 A2984 RMK AO2 SLP127 T00441011
KHLN 220653Z 13003KT 10SM CLR 08/M02 A2986 RMK AO2 SLP131 T00781017 401060033
KHLN 220553Z 20007KT 10SM BKN050 08/M01 A2990 RMK AO2 SLP144 T00781011 10089 20072 58004
KHLN 220453Z 20007KT 10SM CLR 08/M02 A2993 RMK AO2 SLP153 T00831022
KHLN 220353Z 10SM FEW060 08/M03 A2992 RMK AO2 SLP155 T00781028
KHLN 220253Z 16007KT 10SM OVC060 08/M04 A2991 RMK AO2 SLP152 T00831039 58009
KHLN 220153Z 20008KT 10SM CLR 08/M04 A2993 RMK AO2 SLP160 T00831039
KHLN 220053Z 18010KT 10SM FEW085 08/M04 A2994 RMK AO2 SLP162 T00781039
KHLN 212353Z 25012KT 10SM BKN065 BKN080 09/M05 A2995 RMK AO2 SLP163 T00891050 10106 20078 53002
KHLN 212253Z 26013KT 10SM FEW070 10/M06 A2994 RMK AO2 SLP157 T01001061
KHLN 212153Z 27007KT 10SM FEW070 10/M06 A2993 RMK AO2 SLP155 T01001061
KHLN 212053Z AUTO 26009KT 10SM FEW070 10/M07 A2994 RMK AO2 SLP158 T01001067 58008
KHLN 211953Z 27009G19KT 10SM CLR 08/M08 A2995 RMK AO2 SLP164 T00831078
KHLN 211853Z 27015G20KT 10SM SCT065 08/M07 A2996 RMK AO2 SLP170 T00781067
KHLN 211753Z 26014G22KT 10SM BKN065 08/M06 A2997 RMK AO2 SLP171 T00781061 10083 20033 51006
KHLN 211653Z 24008KT 10SM BKN075 07/M04 A2997 RMK AO2 SLP172 T00671044
KHLN 211553Z 26013G19KT 10SM FEW042 FEW060 06/M03 A2995 RMK AO2 SLP167 T00561028
KHLN 211453Z 26007KT 10SM BKN075 05/M04 A2995 RMK AO2 SLP167 T00501039 53012
KHLN 211353Z 27003KT 10SM FEW043 SCT080 03/M03 A2993 RMK AO2 SLP163 T00331028
KHLN 211253Z 27007KT 10SM CLR 04/M03 A2991 RMK AO2 SLP154 T00441033